createdAt,value
2023-04-15T00:00:34.260Z,99537.13
2023-04-15T00:01:37.286Z,99538.88
2023-04-15T00:02:39.154Z,99531.06
2023-04-15T00:03:42.162Z,99537.13
2023-04-15T00:04:44.400Z,99535.72
2023-04-15T00:05:47.242Z,99545.66
2023-04-15T00:06:53.169Z,99539.84
2023-04-15T00:07:55.715Z,99538.53
2023-04-15T00:08:57.246Z,99541.31
2023-04-15T00:10:01.154Z,99549.38
2023-04-15T00:11:03.150Z,99537.66
2023-04-15T00:12:06.407Z,99542.31
2023-04-15T00:13:08.015Z,99547.53
2023-04-15T00:14:10.671Z,99533.56
2023-04-15T00:15:12.611Z,99541.38
2023-04-15T00:16:15.794Z,99536.47
2023-04-15T00:17:17.956Z,99541.06
2023-04-15T00:18:21.164Z,99535.44
2023-04-15T00:19:22.934Z,99530.56
2023-04-15T00:20:25.745Z,99532.66
2023-04-15T00:21:29.009Z,99525.44
2023-04-15T00:22:32.420Z,99523.56
2023-04-15T00:23:33.996Z,99528.59
2023-04-15T00:24:36.928Z,99531.50
2023-04-15T00:25:40.448Z,99529.59
2023-04-15T00:26:42.961Z,99523.09
2023-04-15T00:27:44.469Z,99528.53
2023-04-15T00:28:46.926Z,99528.19
2023-04-15T00:29:48.448Z,99529.66
2023-04-15T00:30:51.647Z,99520.81
2023-04-15T00:31:53.322Z,99527.75
2023-04-15T00:32:55.862Z,99520.31
2023-04-15T00:33:58.502Z,99531.25
2023-04-15T00:35:02.254Z,99526.25
2023-04-15T00:36:04.406Z,99528.09
2023-04-15T00:37:06.931Z,99531.25
2023-04-15T00:38:08.678Z,99529.31
2023-04-15T00:39:11.294Z,99529.44
2023-04-15T00:40:13.748Z,99525.13
2023-04-15T00:41:18.143Z,99529.16
2023-04-15T00:42:21.700Z,99522.19
2023-04-15T00:43:24.245Z,99519.88
2023-04-15T00:44:27.112Z,99520.78
2023-04-15T00:45:29.288Z,99515.91
2023-04-15T00:46:32.602Z,99520.25
2023-04-15T00:47:37.292Z,99520.56
2023-04-15T00:48:39.925Z,99524.34
2023-04-15T00:49:42.162Z,99523.09
2023-04-15T00:50:44.644Z,99514.88
2023-04-15T00:51:46.501Z,99513.94
2023-04-15T00:52:49.103Z,99517.81
2023-04-15T00:53:51.900Z,99509.66
2023-04-15T00:54:54.495Z,99507.06
2023-04-15T00:55:56.216Z,99513.50
2023-04-15T00:57:00.722Z,99514.34
2023-04-15T00:58:02.314Z,99516.38
2023-04-15T00:59:05.538Z,99514.09
2023-04-15T01:00:09.037Z,99512.06
2023-04-15T01:01:11.604Z,99505.41
2023-04-15T01:02:13.334Z,99508.84
2023-04-15T01:03:16.477Z,99506.75
2023-04-15T01:04:18.259Z,99512.59
2023-04-15T01:05:21.144Z,99505.13
2023-04-15T01:06:23.804Z,99505.63
2023-04-15T01:07:26.405Z,99508.63
2023-04-15T01:08:28.532Z,99508.13
2023-04-15T01:09:31.059Z,99500.78
2023-04-15T01:10:33.515Z,99511.44
2023-04-15T01:11:36.583Z,99497.91
2023-04-15T01:12:40.042Z,99495.78
2023-04-15T01:13:42.723Z,99491.75
2023-04-15T01:14:45.925Z,99491.28
2023-04-15T01:15:48.545Z,99489.09
2023-04-15T01:16:50.167Z,99493.63
2023-04-15T01:17:52.872Z,99488.00
2023-04-15T01:18:54.957Z,99485.16
2023-04-15T01:19:58.032Z,99485.28
2023-04-15T01:21:01.751Z,99485.28
2023-04-15T01:22:05.462Z,99486.41
2023-04-15T01:23:07.384Z,99484.31
2023-04-15T01:24:11.807Z,99481.66
2023-04-15T01:25:18.520Z,99483.19
2023-04-15T01:26:23.398Z,99483.66
2023-04-15T01:27:25.538Z,99482.91
2023-04-15T01:28:28.464Z,99482.28
2023-04-15T01:29:30.926Z,99483.41
2023-04-15T01:30:35.692Z,99481.13
2023-04-15T01:31:37.600Z,99485.16
2023-04-15T01:32:40.561Z,99491.44
2023-04-15T01:33:43.312Z,99490.06
2023-04-15T01:34:45.862Z,99486.19
2023-04-15T01:35:47.830Z,99481.69
2023-04-15T01:36:50.406Z,99480.50
2023-04-15T01:37:52.506Z,99485.09
2023-04-15T01:38:55.299Z,99482.00
2023-04-15T01:39:57.392Z,99476.44
2023-04-15T01:41:00.266Z,99479.72
2023-04-15T01:42:04.125Z,99477.38
2023-04-15T01:43:06.592Z,99484.31
2023-04-15T01:44:08.342Z,99476.94
2023-04-15T01:45:11.665Z,99479.50
2023-04-15T01:46:13.221Z,99474.31
2023-04-15T01:47:16.000Z,99479.25
2023-04-15T01:48:17.918Z,99469.28
2023-04-15T01:49:20.481Z,99469.44
2023-04-15T01:50:22.049Z,99463.41
2023-04-15T01:51:24.602Z,99469.03
2023-04-15T01:52:26.185Z,99473.34
2023-04-15T01:53:29.408Z,99473.03
2023-04-15T01:54:31.437Z,99471.06
2023-04-15T01:55:34.170Z,99469.81
2023-04-15T01:56:35.712Z,99477.47
2023-04-15T01:57:39.843Z,99476.91
2023-04-15T01:58:41.731Z,99462.63
2023-04-15T01:59:44.480Z,99468.84
2023-04-15T02:00:46.271Z,99470.88
2023-04-15T02:01:48.753Z,99475.03
2023-04-15T02:02:50.622Z,99471.53
2023-04-15T02:03:53.305Z,99471.63
2023-04-15T02:04:54.908Z,99468.81
2023-04-15T02:05:57.657Z,99464.81
2023-04-15T02:06:59.126Z,99464.81
2023-04-15T02:08:01.687Z,99469.06
2023-04-15T02:09:04.343Z,99469.06
2023-04-15T02:10:07.750Z,99468.88
2023-04-15T02:11:09.461Z,99468.38
2023-04-15T02:12:11.901Z,99465.47
2023-04-15T02:13:14.855Z,99474.56
2023-04-15T02:14:17.378Z,99469.25
2023-04-15T02:15:18.922Z,99474.94
2023-04-15T02:16:21.777Z,99464.78
2023-04-15T02:17:23.446Z,99463.53
2023-04-15T02:18:26.410Z,99460.72
2023-04-15T02:19:27.950Z,99460.91
2023-04-15T02:20:32.106Z,99459.75
2023-04-15T02:21:35.599Z,99460.59
2023-04-15T02:22:38.253Z,99457.88
2023-04-15T02:23:39.793Z,99450.59
2023-04-15T02:24:42.308Z,99447.56
2023-04-15T02:25:53.242Z,99449.66
2023-04-15T02:26:56.451Z,99455.66
2023-04-15T02:27:59.156Z,99446.81
2023-04-15T02:29:02.272Z,99444.38
2023-04-15T02:30:05.614Z,99444.88
2023-04-15T02:31:08.132Z,99445.03
2023-04-15T02:32:11.722Z,99442.06
2023-04-15T02:33:13.420Z,99444.53
2023-04-15T02:34:15.925Z,99441.91
2023-04-15T02:35:19.792Z,99450.25
2023-04-15T02:36:23.940Z,99442.75
2023-04-15T02:37:27.813Z,99438.97
2023-04-15T02:38:31.894Z,99435.47
2023-04-15T02:39:33.830Z,99436.84
2023-04-15T02:40:36.348Z,99433.84
2023-04-15T02:41:37.858Z,99432.97
2023-04-15T02:42:40.443Z,99435.03
2023-04-15T02:43:42.012Z,99439.69
2023-04-15T02:44:46.019Z,99434.03
2023-04-15T02:45:48.414Z,99438.31
2023-04-15T02:46:52.672Z,99434.19
2023-04-15T02:47:54.634Z,99435.69
2023-04-15T02:48:57.199Z,99438.66
2023-04-15T02:50:00.485Z,99439.31
2023-04-15T02:51:12.838Z,99436.44
2023-04-15T02:52:14.462Z,99434.16
2023-04-15T02:53:17.551Z,99429.78
2023-04-15T02:54:20.008Z,99436.16
2023-04-15T02:55:22.723Z,99435.13
2023-04-15T02:56:24.324Z,99438.13
2023-04-15T02:57:27.026Z,99436.22
2023-04-15T02:58:28.594Z,99436.56
2023-04-15T02:59:31.254Z,99433.41
2023-04-15T03:00:34.153Z,99439.28
2023-04-15T03:01:36.802Z,99437.19
2023-04-15T03:02:39.884Z,99435.00
2023-04-15T03:03:42.574Z,99431.94
2023-04-15T03:04:44.170Z,99436.31
2023-04-15T03:05:46.636Z,99432.41
2023-04-15T03:06:48.167Z,99428.25
2023-04-15T03:07:51.058Z,99428.75
2023-04-15T03:08:52.648Z,99425.03
2023-04-15T03:09:55.317Z,99420.16
2023-04-15T03:11:00.663Z,99430.34
2023-04-15T03:12:03.160Z,99420.59
2023-04-15T03:13:04.784Z,99419.56
2023-04-15T03:14:07.377Z,99420.34
2023-04-15T03:15:10.534Z,99421.28
2023-04-15T03:16:14.459Z,99417.84
2023-04-15T03:17:16.444Z,99418.84
2023-04-15T03:18:18.968Z,99418.09
2023-04-15T03:19:20.604Z,99408.25
2023-04-15T03:20:23.538Z,99411.25
2023-04-15T03:21:25.173Z,99411.91
2023-04-15T03:22:27.616Z,99408.38
2023-04-15T03:23:30.807Z,99412.41
2023-04-15T03:24:33.304Z,99410.13
2023-04-15T03:25:37.353Z,99404.47
2023-04-15T03:26:39.813Z,99406.31
2023-04-15T03:27:42.005Z,99405.53
2023-04-15T03:28:44.945Z,99398.69
2023-04-15T03:29:46.516Z,99396.88
2023-04-15T03:30:49.037Z,99393.13
2023-04-15T03:31:52.805Z,99400.53
2023-04-15T03:32:55.445Z,99394.53
2023-04-15T03:33:57.039Z,99407.25
2023-04-15T03:34:59.760Z,99404.50
2023-04-15T03:36:01.480Z,99401.38
2023-04-15T03:37:03.940Z,99404.09
2023-04-15T03:38:05.731Z,99400.00
2023-04-15T03:39:08.741Z,99407.63
2023-04-15T03:40:11.148Z,99397.56
2023-04-15T03:41:13.912Z,99401.91
2023-04-15T03:42:15.641Z,99401.31
2023-04-15T03:43:18.159Z,99407.94
2023-04-15T03:44:19.661Z,99410.59
2023-04-15T03:45:22.172Z,99405.81
2023-04-15T03:46:23.970Z,99412.69
2023-04-15T03:47:27.944Z,99407.53
2023-04-15T03:48:29.521Z,99407.66
2023-04-15T03:49:32.077Z,99414.66
2023-04-15T03:50:33.591Z,99412.69
2023-04-15T03:51:36.315Z,99408.31
2023-04-15T03:52:37.822Z,99411.84
2023-04-15T03:53:40.372Z,99408.34
2023-04-15T03:54:41.937Z,99405.28
2023-04-15T03:55:44.729Z,99404.09
2023-04-15T03:56:46.546Z,99399.31
2023-04-15T03:57:49.137Z,99405.03
2023-04-15T03:58:50.654Z,99410.75
2023-04-15T03:59:53.183Z,99406.84
2023-04-15T04:01:02.044Z,99400.69
2023-04-15T04:02:04.509Z,99410.59
2023-04-15T04:03:08.458Z,99407.94
2023-04-15T04:04:11.609Z,99409.50
2023-04-15T04:05:13.110Z,99406.69
2023-04-15T04:06:16.853Z,99415.25
2023-04-15T04:07:18.673Z,99412.22
2023-04-15T04:08:22.040Z,99414.41
2023-04-15T04:09:23.694Z,99414.41
2023-04-15T04:10:26.255Z,99418.31
2023-04-15T04:11:28.222Z,99418.47
2023-04-15T04:12:30.727Z,99418.09
2023-04-15T04:13:32.401Z,99423.16
2023-04-15T04:14:34.852Z,99421.94
2023-04-15T04:15:36.631Z,99425.81
2023-04-15T04:16:39.102Z,99429.09
2023-04-15T04:17:40.848Z,99419.66
2023-04-15T04:18:44.701Z,99426.31
2023-04-15T04:19:46.462Z,99416.09
2023-04-15T04:20:48.972Z,99422.03
2023-04-15T04:21:51.112Z,99428.72
2023-04-15T04:22:53.628Z,99430.19
2023-04-15T04:23:56.765Z,99434.75
2023-04-15T04:25:00.534Z,99430.44
2023-04-15T04:26:02.002Z,99441.75
2023-04-15T04:27:04.723Z,99437.97
2023-04-15T04:28:06.216Z,99432.50
2023-04-15T04:29:09.288Z,99426.44
2023-04-15T04:30:11.579Z,99427.41
2023-04-15T04:31:14.253Z,99426.56
2023-04-15T04:32:16.000Z,99422.53
2023-04-15T04:33:18.633Z,99415.78
2023-04-15T04:34:21.468Z,99416.78
2023-04-15T04:35:23.934Z,99414.66
2023-04-15T04:36:26.555Z,99425.84
2023-04-15T04:37:29.073Z,99419.81
2023-04-15T04:38:30.720Z,99427.06
2023-04-15T04:39:33.505Z,99420.41
2023-04-15T04:40:35.182Z,99425.28
2023-04-15T04:41:37.655Z,99422.59
2023-04-15T04:42:40.191Z,99412.53
2023-04-15T04:43:42.904Z,99417.56
2023-04-15T04:44:44.444Z,99414.09
2023-04-15T04:45:47.324Z,99412.47
2023-04-15T04:46:48.899Z,99403.66
2023-04-15T04:47:51.748Z,99404.47
2023-04-15T04:48:53.518Z,99400.78
2023-04-15T04:49:57.542Z,99404.22
2023-04-15T04:50:59.259Z,99405.28
2023-04-15T04:52:02.601Z,99410.13
2023-04-15T04:53:07.057Z,99408.38
2023-04-15T04:54:09.656Z,99402.94
2023-04-15T04:55:11.731Z,99400.63
2023-04-15T04:56:14.220Z,99405.91
2023-04-15T04:57:16.021Z,99402.63
2023-04-15T04:58:18.912Z,99400.44
2023-04-15T04:59:20.440Z,99411.38
2023-04-15T05:00:22.926Z,99407.66
2023-04-15T05:01:24.530Z,99409.31
2023-04-15T05:02:27.561Z,99412.38
2023-04-15T05:03:30.678Z,99415.69
2023-04-15T05:04:32.273Z,99408.97
2023-04-15T05:05:37.250Z,99416.78
2023-04-15T05:06:38.814Z,99420.84
2023-04-15T05:07:41.434Z,99415.63
2023-04-15T05:08:42.945Z,99416.38
2023-04-15T05:09:45.709Z,99419.47
2023-04-15T05:10:47.309Z,99416.56
2023-04-15T05:11:49.761Z,99416.03
2023-04-15T05:12:51.949Z,99411.75
2023-04-15T05:13:54.416Z,99416.94
2023-04-15T05:14:55.928Z,99422.03
2023-04-15T05:15:58.446Z,99427.53
2023-04-15T05:16:59.973Z,99426.00
2023-04-15T05:18:02.538Z,99423.09
2023-04-15T05:19:04.135Z,99418.69
2023-04-15T05:20:07.952Z,99419.66
2023-04-15T05:21:10.862Z,99420.28
2023-04-15T05:22:13.349Z,99421.00
2023-04-15T05:23:15.216Z,99419.72
2023-04-15T05:24:18.148Z,99417.84
2023-04-15T05:25:20.261Z,99413.59
2023-04-15T05:26:22.716Z,99415.56
2023-04-15T05:27:24.963Z,99409.53
2023-04-15T05:28:27.454Z,99415.44
2023-04-15T05:29:29.176Z,99415.63
2023-04-15T05:30:31.943Z,99411.84
2023-04-15T05:31:33.630Z,99412.53
2023-04-15T05:32:36.213Z,99412.97
2023-04-15T05:33:37.820Z,99413.94
2023-04-15T05:34:40.597Z,99419.84
2023-04-15T05:35:42.213Z,99413.13
2023-04-15T05:36:46.194Z,99419.78
2023-04-15T05:37:47.695Z,99416.53
2023-04-15T05:38:50.201Z,99406.81
2023-04-15T05:39:52.240Z,99404.19
2023-04-15T05:40:54.739Z,99397.72
2023-04-15T05:41:57.639Z,99407.34
2023-04-15T05:43:00.151Z,99406.31
2023-04-15T05:44:01.983Z,99408.66
2023-04-15T05:45:09.026Z,99411.09
2023-04-15T05:46:10.587Z,99407.19
2023-04-15T05:47:13.096Z,99409.53
2023-04-15T05:48:14.600Z,99410.41
2023-04-15T05:49:17.047Z,99417.13
2023-04-15T05:50:18.788Z,99416.66
2023-04-15T05:51:21.378Z,99411.28
2023-04-15T05:52:24.633Z,99410.13
2023-04-15T05:53:27.162Z,99411.06
2023-04-15T05:54:28.750Z,99415.09
2023-04-15T05:55:31.387Z,99414.22
2023-04-15T05:56:33.096Z,99419.31
2023-04-15T05:57:36.625Z,99415.91
2023-04-15T05:58:38.155Z,99428.59
2023-04-15T05:59:42.135Z,99419.72
2023-04-15T06:00:44.708Z,99418.22
2023-04-15T06:01:47.216Z,99420.28
2023-04-15T06:02:48.960Z,99418.03
2023-04-15T06:03:51.603Z,99419.59
2023-04-15T06:04:53.836Z,99421.09
2023-04-15T06:05:56.481Z,99419.63
2023-04-15T06:06:58.041Z,99422.72
2023-04-15T06:08:01.974Z,99425.84
2023-04-15T06:09:03.960Z,99414.38
2023-04-15T06:10:08.376Z,99421.53
2023-04-15T06:11:10.876Z,99417.47
2023-04-15T06:12:13.195Z,99417.50
2023-04-15T06:13:16.892Z,99410.50
2023-04-15T06:14:18.403Z,99422.94
2023-04-15T06:15:20.942Z,99414.59
2023-04-15T06:16:23.249Z,99417.78
2023-04-15T06:17:28.201Z,99416.28
2023-04-15T06:18:30.407Z,99413.69
2023-04-15T06:19:33.348Z,99415.66
2023-04-15T06:20:34.960Z,99416.38
2023-04-15T06:21:37.623Z,99411.00
2023-04-15T06:22:39.191Z,99414.69
2023-04-15T06:23:43.080Z,99416.91
2023-04-15T06:24:44.657Z,99406.66
2023-04-15T06:25:47.315Z,99410.47
2023-04-15T06:26:48.803Z,99406.00
2023-04-15T06:27:51.492Z,99412.22
2023-04-15T06:28:53.445Z,99408.94
2023-04-15T06:29:55.950Z,99406.00
2023-04-15T06:30:57.531Z,99410.78
2023-04-15T06:32:00.573Z,99416.72
2023-04-15T06:33:03.521Z,99415.97
2023-04-15T06:34:06.297Z,99426.19
2023-04-15T06:35:08.718Z,99417.09
2023-04-15T06:36:11.186Z,99416.75
2023-04-15T06:37:16.200Z,99411.38
2023-04-15T06:38:18.774Z,99411.16
2023-04-15T06:39:22.659Z,99410.19
2023-04-15T06:40:24.311Z,99411.88
2023-04-15T06:41:26.983Z,99413.56
2023-04-15T06:42:28.602Z,99419.66
2023-04-15T06:43:31.303Z,99403.63
2023-04-15T06:44:33.914Z,99407.81
2023-04-15T06:45:36.730Z,99408.03
2023-04-15T06:46:38.305Z,99412.66
2023-04-15T06:47:41.730Z,99404.75
2023-04-15T06:48:43.354Z,99410.81
2023-04-15T06:49:46.066Z,99416.94
2023-04-15T06:50:47.871Z,99408.78
2023-04-15T06:51:51.405Z,99415.53
2023-04-15T06:52:54.914Z,99415.41
2023-04-15T06:53:57.203Z,99413.78
2023-04-15T06:55:02.766Z,99413.56
2023-04-15T06:56:04.764Z,99408.22
2023-04-15T06:57:07.817Z,99415.72
2023-04-15T06:58:09.371Z,99424.16
2023-04-15T06:59:11.856Z,99412.75
2023-04-15T07:00:14.387Z,99421.47
2023-04-15T07:01:17.203Z,99418.09
2023-04-15T07:02:18.964Z,99413.47
2023-04-15T07:03:21.652Z,99409.50
2023-04-15T07:04:24.411Z,99414.75
2023-04-15T07:05:26.413Z,99415.63
2023-04-15T07:06:28.954Z,99415.78
2023-04-15T07:07:30.515Z,99420.09
2023-04-15T07:08:33.698Z,99414.53
2023-04-15T07:09:35.305Z,99422.50
2023-04-15T07:10:39.176Z,99421.19
2023-04-15T07:11:40.800Z,99416.66
2023-04-15T07:12:43.307Z,99417.41
2023-04-15T07:13:44.803Z,99416.66
2023-04-15T07:14:47.425Z,99416.88
2023-04-15T07:15:49.054Z,99425.16
2023-04-15T07:16:51.683Z,99426.41
2023-04-15T07:17:53.330Z,99419.66
2023-04-15T07:18:55.918Z,99421.44
2023-04-15T07:19:57.419Z,99425.69
2023-04-15T07:20:59.958Z,99427.66
2023-04-15T07:22:01.557Z,99424.16
2023-04-15T07:23:04.227Z,99430.38
2023-04-15T07:24:06.783Z,99428.84
2023-04-15T07:25:10.195Z,99430.22
2023-04-15T07:26:13.097Z,99432.75
2023-04-15T07:27:16.058Z,99432.88
2023-04-15T07:28:18.770Z,99426.88
2023-04-15T07:29:20.790Z,99436.34
2023-04-15T07:30:23.406Z,99433.72
2023-04-15T07:31:25.211Z,99432.19
2023-04-15T07:32:27.930Z,99440.75
2023-04-15T07:33:29.510Z,99443.88
2023-04-15T07:34:32.751Z,99437.34
2023-04-15T07:35:34.545Z,99440.72
2023-04-15T07:36:37.243Z,99435.63
2023-04-15T07:37:38.835Z,99433.13
2023-04-15T07:38:41.670Z,99438.50
2023-04-15T07:39:43.708Z,99439.16
2023-04-15T07:40:47.408Z,99429.91
2023-04-15T07:41:50.371Z,99426.22
2023-04-15T07:42:53.066Z,99439.75
2023-04-15T07:43:55.805Z,99433.72
2023-04-15T07:44:57.543Z,99432.09
2023-04-15T07:46:00.411Z,99442.13
2023-04-15T07:47:04.035Z,99439.03
2023-04-15T07:48:06.684Z,99439.31
2023-04-15T07:49:09.268Z,99441.59
2023-04-15T07:50:12.338Z,99442.41
2023-04-15T07:51:14.904Z,99452.03
2023-04-15T07:52:16.672Z,99449.91
2023-04-15T07:53:24.594Z,99444.84
2023-04-15T07:54:27.403Z,99451.22
2023-04-15T07:55:30.602Z,99452.53
2023-04-15T07:56:33.179Z,99451.72
2023-04-15T07:57:36.779Z,99452.16
2023-04-15T07:58:39.404Z,99452.34
2023-04-15T07:59:57.238Z,99453.72
2023-04-15T08:00:59.403Z,99447.97
2023-04-15T08:02:02.521Z,99446.22
2023-04-15T08:03:04.823Z,99452.16
2023-04-15T08:04:08.319Z,99451.50
2023-04-15T08:05:11.173Z,99463.66
2023-04-15T08:06:15.063Z,99462.22
2023-04-15T08:07:18.148Z,99463.34
2023-04-15T08:08:19.713Z,99455.41
2023-04-15T08:09:22.219Z,99462.72
2023-04-15T08:10:25.130Z,99456.75
2023-04-15T08:11:27.702Z,99453.06
2023-04-15T08:12:30.292Z,99457.91
2023-04-15T08:13:34.371Z,99453.72
2023-04-15T08:14:36.343Z,99458.50
2023-04-15T08:15:38.943Z,99448.59
2023-04-15T08:16:40.860Z,99450.72
2023-04-15T08:17:43.878Z,99436.03
2023-04-15T08:18:45.501Z,99448.28
2023-04-15T08:19:48.486Z,99441.88
2023-04-15T08:20:50.100Z,99444.53
2023-04-15T08:21:52.942Z,99441.75
2023-04-15T08:22:54.479Z,99445.34
2023-04-15T08:23:57.006Z,99446.31
2023-04-15T08:24:59.594Z,99455.06
2023-04-15T08:26:02.551Z,99458.06
2023-04-15T08:27:05.727Z,99462.53
2023-04-15T08:28:09.069Z,99456.81
2023-04-15T08:29:12.920Z,99461.53
2023-04-15T08:30:15.313Z,99457.03
2023-04-15T08:31:19.765Z,99456.66
2023-04-15T08:32:21.363Z,99454.16
2023-04-15T08:33:23.939Z,99457.25
2023-04-15T08:34:25.597Z,99458.75
2023-04-15T08:35:28.090Z,99463.22
2023-04-15T08:36:29.669Z,99464.38
2023-04-15T08:37:32.177Z,99463.50
2023-04-15T08:38:33.985Z,99465.44
2023-04-15T08:39:36.509Z,99460.56
2023-04-15T08:40:42.372Z,99463.94
2023-04-15T08:41:48.768Z,99465.19
2023-04-15T08:42:55.483Z,99456.22
2023-04-15T08:43:58.897Z,99473.41
2023-04-15T08:45:06.095Z,99470.69
2023-04-15T08:46:09.556Z,99470.03
2023-04-15T08:47:14.787Z,99475.34
2023-04-15T08:48:17.229Z,99470.78
2023-04-15T08:49:20.395Z,99475.78
2023-04-15T08:50:24.626Z,99476.06
2023-04-15T08:51:27.951Z,99475.34
2023-04-15T08:52:31.262Z,99476.91
2023-04-15T08:53:34.066Z,99479.06
2023-04-15T08:54:36.506Z,99476.13
2023-04-15T08:55:44.623Z,99476.91
2023-04-15T08:56:47.084Z,99486.88
2023-04-15T08:57:50.046Z,99477.75
2023-04-15T08:58:52.579Z,99476.50
2023-04-15T08:59:57.104Z,99477.47
2023-04-15T09:01:00.093Z,99479.19
2023-04-15T09:02:03.714Z,99471.66
2023-04-15T09:03:06.702Z,99473.28
2023-04-15T09:04:09.852Z,99487.75
2023-04-15T09:05:11.576Z,99488.47
2023-04-15T09:06:14.653Z,99480.78
2023-04-15T09:07:16.447Z,99481.63
2023-04-15T09:08:18.998Z,99488.50
2023-04-15T09:09:20.867Z,99489.41
2023-04-15T09:10:23.401Z,99493.00
2023-04-15T09:11:25.019Z,99501.22
2023-04-15T09:12:27.537Z,99486.06
2023-04-15T09:13:29.309Z,99489.97
2023-04-15T09:14:32.788Z,99486.25
2023-04-15T09:15:38.668Z,99488.00
2023-04-15T09:17:02.897Z,99499.72
2023-04-15T09:18:04.577Z,99492.38
2023-04-15T09:19:21.764Z,99492.31
2023-04-15T09:20:25.011Z,99491.06
2023-04-15T09:21:26.545Z,99486.44
2023-04-15T09:22:33.128Z,99488.66
2023-04-15T09:23:35.552Z,99491.28
2023-04-15T09:24:40.838Z,99487.41
2023-04-15T09:25:42.650Z,99491.56
2023-04-15T09:26:45.382Z,99493.44
2023-04-15T09:27:48.942Z,99494.22
2023-04-15T09:28:54.631Z,99493.97
2023-04-15T09:29:56.517Z,99492.78
2023-04-15T09:30:59.767Z,99496.13
2023-04-15T09:32:14.210Z,99499.56
2023-04-15T09:33:15.855Z,99495.44
2023-04-15T09:34:18.437Z,99507.63
2023-04-15T09:35:22.245Z,99498.66
2023-04-15T09:36:25.057Z,99501.56
2023-04-15T09:37:39.374Z,99507.84
2023-04-15T09:38:56.075Z,99502.38
2023-04-15T09:39:57.698Z,99511.09
2023-04-15T09:41:00.985Z,99510.22
2023-04-15T09:42:07.205Z,99512.44
2023-04-15T09:43:13.022Z,99506.56
2023-04-15T09:44:24.215Z,99507.03
2023-04-15T09:45:29.506Z,99506.00
2023-04-15T09:46:43.108Z,99510.66
2023-04-15T09:47:46.432Z,99509.06
2023-04-15T09:49:08.883Z,99512.97
2023-04-15T09:50:10.488Z,99511.97
2023-04-15T09:51:12.976Z,99513.50
2023-04-15T09:52:14.580Z,99511.97
2023-04-15T09:53:19.096Z,99510.44
2023-04-15T09:54:21.793Z,99504.84
2023-04-15T09:55:24.501Z,99505.13
2023-04-15T09:56:34.728Z,99510.75
2023-04-15T09:57:38.229Z,99515.56
2023-04-15T09:58:41.651Z,99513.84
2023-04-15T09:59:44.211Z,99517.47
2023-04-15T10:00:47.719Z,99515.91
2023-04-15T10:01:50.577Z,99517.25
2023-04-15T10:02:53.789Z,99517.09
2023-04-15T10:03:58.409Z,99516.22
2023-04-15T10:05:03.838Z,99522.06
2023-04-15T10:06:06.413Z,99515.59
2023-04-15T10:07:09.518Z,99516.22
2023-04-15T10:08:13.367Z,99525.81
2023-04-15T10:09:15.475Z,99524.50
2023-04-15T10:10:18.583Z,99510.16
2023-04-15T10:11:23.321Z,99519.53
2023-04-15T10:12:27.137Z,99522.16
2023-04-15T10:13:33.394Z,99520.22
2023-04-15T10:14:39.015Z,99519.72
2023-04-15T10:15:45.439Z,99522.69
2023-04-15T10:16:49.899Z,99526.81
2023-04-15T10:17:55.429Z,99529.53
2023-04-15T10:18:59.418Z,99523.91
2023-04-15T10:20:02.160Z,99526.59
2023-04-15T10:21:06.751Z,99534.88
2023-04-15T10:22:08.586Z,99533.19
2023-04-15T10:23:13.364Z,99529.72
2023-04-15T10:24:16.528Z,99533.06
2023-04-15T10:25:22.981Z,99530.53
2023-04-15T10:26:29.487Z,99532.75
2023-04-15T10:27:32.183Z,99533.16
2023-04-15T10:28:35.394Z,99534.66
2023-04-15T10:29:38.784Z,99529.75
2023-04-15T10:30:41.486Z,99538.53
2023-04-15T10:31:44.434Z,99535.81
2023-04-15T10:32:48.148Z,99536.03
2023-04-15T10:33:52.723Z,99537.13
2023-04-15T10:34:56.885Z,99538.13
2023-04-15T10:35:59.713Z,99532.97
2023-04-15T10:37:03.559Z,99533.66
2023-04-15T10:38:34.176Z,99544.09
2023-04-15T10:39:41.251Z,99547.56
2023-04-15T10:40:45.346Z,99540.53
2023-04-15T10:42:06.516Z,99542.84
2023-04-15T10:43:26.402Z,99544.88
2023-04-15T10:44:28.045Z,99541.06
2023-04-15T10:45:34.569Z,99543.94
2023-04-15T10:46:39.027Z,99539.41
2023-04-15T10:47:41.658Z,99547.00
2023-04-15T10:48:48.220Z,99543.31
2023-04-15T10:49:53.606Z,99540.13
2023-04-15T10:51:00.750Z,99540.00
2023-04-15T10:52:03.834Z,99548.19
2023-04-15T10:53:05.682Z,99539.63
2023-04-15T10:54:14.598Z,99541.25
2023-04-15T10:55:21.294Z,99542.44
2023-04-15T10:56:23.369Z,99539.44
2023-04-15T10:57:26.168Z,99544.91
2023-04-15T10:58:42.956Z,99546.31
2023-04-15T11:00:11.589Z,99539.72
2023-04-15T11:01:13.443Z,99544.88
2023-04-15T11:02:16.538Z,99541.44
2023-04-15T11:03:35.181Z,99544.72
2023-04-15T11:04:55.914Z,99542.22
2023-04-15T11:05:58.729Z,99551.25
2023-04-15T11:07:06.562Z,99544.66
2023-04-15T11:08:15.127Z,99545.56
2023-04-15T11:09:35.053Z,99545.22
2023-04-15T11:10:56.201Z,99548.72
2023-04-15T11:12:08.479Z,99551.88
2023-04-15T11:13:17.008Z,99552.25
2023-04-15T11:14:19.821Z,99543.94
2023-04-15T11:15:29.787Z,99549.16
2023-04-15T11:16:32.780Z,99551.50
2023-04-15T11:17:34.438Z,99550.97
2023-04-15T11:18:38.072Z,99555.19
2023-04-15T11:19:39.810Z,99560.56
2023-04-15T11:20:45.965Z,99561.97
2023-04-15T11:21:53.190Z,99560.50
2023-04-15T11:23:13.944Z,99556.59
2023-04-15T11:24:27.122Z,99562.53
2023-04-15T11:25:32.227Z,99563.34
2023-04-15T11:26:35.158Z,99557.00
2023-04-15T11:27:37.865Z,99560.13
2023-04-15T11:28:41.837Z,99558.47
2023-04-15T11:29:44.290Z,99558.09
2023-04-15T11:30:46.859Z,99566.00
2023-04-15T11:31:51.414Z,99562.19
2023-04-15T11:32:56.695Z,99558.56
2023-04-15T11:34:01.624Z,99564.56
2023-04-15T11:35:03.409Z,99559.72
2023-04-15T11:36:07.976Z,99548.34
2023-04-15T11:37:10.171Z,99562.59
2023-04-15T11:38:15.342Z,99559.88
2023-04-15T11:39:17.918Z,99553.78
2023-04-15T11:40:23.687Z,99564.56
2023-04-15T11:41:26.216Z,99561.81
2023-04-15T11:42:36.247Z,99556.50
2023-04-15T11:43:45.767Z,99562.69
2023-04-15T11:44:47.796Z,99561.56
2023-04-15T11:45:53.627Z,99560.44
2023-04-15T11:46:56.944Z,99566.38
2023-04-15T11:48:07.503Z,99569.38
2023-04-15T11:49:10.133Z,99573.06
2023-04-15T11:50:16.615Z,99575.09
2023-04-15T11:51:22.028Z,99575.09
2023-04-15T11:52:25.948Z,99569.41
2023-04-15T11:53:39.103Z,99571.47
2023-04-15T11:54:40.816Z,99576.53
2023-04-15T11:55:46.416Z,99575.97
2023-04-15T11:56:52.156Z,99575.34
2023-04-15T11:58:08.154Z,99578.53
2023-04-15T11:59:10.668Z,99574.81
2023-04-15T12:00:13.128Z,99582.31
2023-04-15T12:01:15.676Z,99580.09
2023-04-15T12:02:17.365Z,99579.56
2023-04-15T12:03:26.572Z,99578.75
2023-04-15T12:04:28.410Z,99585.84
2023-04-15T12:05:32.018Z,99584.34
2023-04-15T12:06:37.168Z,99583.91
2023-04-15T12:07:58.053Z,99588.16
2023-04-15T12:09:04.740Z,99590.06
2023-04-15T12:10:07.897Z,99588.28
2023-04-15T12:11:09.470Z,99595.53
2023-04-15T12:12:12.765Z,99590.06
2023-04-15T12:13:15.308Z,99597.97
2023-04-15T12:14:23.697Z,99598.03
2023-04-15T12:15:25.353Z,99605.34
2023-04-15T12:16:29.647Z,99603.78
2023-04-15T12:17:51.485Z,99600.56
2023-04-15T12:18:56.083Z,99606.16
2023-04-15T12:19:59.517Z,99604.97
2023-04-15T12:21:09.159Z,99607.47
2023-04-15T12:22:16.113Z,99600.28
2023-04-15T12:23:19.621Z,99614.22
2023-04-15T12:24:23.742Z,99610.06
2023-04-15T12:25:34.635Z,99609.16
2023-04-15T12:26:39.170Z,99609.78